Time;durP1;ratioP1;P1;durP2;ratioP2;P2;SDS_P1;SDS_P2;PMS_P1;PMS_P2;Temp;Humidity;BMP_temperature;BMP_pressure;BME280_temperature;BME280_humidity;BME280_pressure;Samples;Min_cycle;Max_cycle;Signal;HPM_P1;HPM_P2
2022/05/12 00:01:51;;;;;;;3.23;1.43;;;;;;;;;;5043165;28;20211;-80
2022/05/12 00:04:18;;;;;;;2.28;1.33;;;;;;;;;;5049661;28;20493;-80
2022/05/12 00:06:45;;;;;;;3.50;1.80;;;;;;;;;;5050085;28;20206;-81
2022/05/12 00:09:12;;;;;;;3.53;1.40;;;;;;;;;;5045685;28;20209;-81
2022/05/12 00:11:39;;;;;;;3.10;1.35;;;;;;;;;;5045233;28;20195;-82
2022/05/12 00:14:08;;;;;;;4.05;2.42;;;;;;;;;;5051325;28;20205;-81
2022/05/12 00:16:35;;;;;;;3.97;1.27;;;;;;;;;;5048242;28;20383;-81
2022/05/12 00:19:02;;;;;;;1.90;1.45;;;;;;;;;;5043676;28;20198;-82
2022/05/12 00:21:29;;;;;;;2.28;1.90;;;;;;;;;;5044163;28;20206;-82
2022/05/12 00:23:59;;;;;;;1.70;1.50;;;;;;;;;;5042914;28;20219;-82
2022/05/12 00:26:26;;;;;;;3.60;1.70;;;;;;;;;;5039886;28;20226;-83
2022/05/12 00:28:55;;;;;;;2.38;1.40;;;;;;;;;;5048613;28;20621;-82
2022/05/12 00:31:24;;;;;;;3.35;1.30;;;;;;;;;;5042671;28;20206;-82
2022/05/12 00:33:51;;;;;;;3.92;1.60;;;;;;;;;;5042447;28;20574;-80
2022/05/12 00:36:18;;;;;;;2.47;1.50;;;;;;;;;;5048556;28;20646;-80
2022/05/12 00:38:45;;;;;;;4.72;1.48;;;;;;;;;;5043019;28;20209;-80
2022/05/12 00:41:12;;;;;;;2.00;1.20;;;;;;;;;;5051862;28;20637;-80
2022/05/12 00:43:41;;;;;;;5.00;1.42;;;;;;;;;;5053728;28;20713;-82
2022/05/12 00:46:09;;;;;;;2.08;1.50;;;;;;;;;;5049034;28;20191;-82
2022/05/12 00:48:38;;;;;;;4.03;1.70;;;;;;;;;;5053218;28;20289;-79
2022/05/12 00:51:06;;;;;;;1.83;0.98;;;;;;;;;;5051328;28;20665;-80
2022/05/12 00:53:35;;;;;;;2.10;1.10;;;;;;;;;;5054560;28;20289;-81
2022/05/12 00:56:02;;;;;;;2.22;1.20;;;;;;;;;;5038763;28;20207;-81
2022/05/12 00:58:29;;;;;;;2.72;1.38;;;;;;;;;;5047120;28;20662;-81
2022/05/12 01:00:56;;;;;;;1.95;0.95;;;;;;;;;;5045199;28;20247;-81
2022/05/12 01:03:26;;;;;;;1.50;1.10;;;;;;;;;;5052207;28;20219;-82
2022/05/12 01:05:55;;;;;;;3.38;1.50;;;;;;;;;;5054096;28;20206;-83
2022/05/12 01:08:23;;;;;;;4.72;1.50;;;;;;;;;;5052839;28;20195;-82
2022/05/12 01:10:56;;;;;;;1.80;1.05;;;;;;;;;;5050549;28;20199;-84
2022/05/12 01:13:23;;;;;;;2.67;1.15;;;;;;;;;;5052506;28;20191;-82
2022/05/12 01:15:51;;;;;;;2.08;1.10;;;;;;;;;;5045403;28;20559;-80
2022/05/12 01:18:18;;;;;;;3.00;1.60;;;;;;;;;;5046497;28;21362;-82
2022/05/12 01:20:46;;;;;;;2.75;1.27;;;;;;;;;;5052066;28;20199;-81
2022/05/12 01:23:24;;;;;;;2.53;1.50;;;;;;;;;;5049331;28;20219;-81
2022/05/12 01:25:52;;;;;;;2.00;1.17;;;;;;;;;;5036377;28;20203;-81
2022/05/12 01:28:19;;;;;;;2.10;1.10;;;;;;;;;;5052405;28;20196;-83
2022/05/12 01:30:46;;;;;;;3.50;1.20;;;;;;;;;;5046234;28;20210;-81
2022/05/12 01:33:13;;;;;;;2.83;1.60;;;;;;;;;;5045069;28;20296;-82
2022/05/12 01:35:40;;;;;;;2.25;1.10;;;;;;;;;;5043301;28;20200;-81
2022/05/12 01:38:07;;;;;;;2.70;1.10;;;;;;;;;;5042612;28;20195;-82
2022/05/12 01:40:35;;;;;;;2.00;1.30;;;;;;;;;;5052285;28;20191;-82
2022/05/12 01:43:02;;;;;;;1.65;1.10;;;;;;;;;;5040822;28;20674;-81
2022/05/12 01:45:29;;;;;;;2.00;1.02;;;;;;;;;;5051316;28;20196;-82
2022/05/12 01:47:56;;;;;;;2.38;1.15;;;;;;;;;;5052131;28;20210;-82
2022/05/12 01:50:24;;;;;;;1.60;1.10;;;;;;;;;;5052104;28;20586;-82
2022/05/12 01:52:51;;;;;;;2.35;1.10;;;;;;;;;;5052497;28;20191;-83
2022/05/12 01:55:19;;;;;;;1.95;1.45;;;;;;;;;;5044105;28;20191;-82
2022/05/12 01:57:47;;;;;;;1.20;0.90;;;;;;;;;;5043435;28;20687;-82
2022/05/12 02:00:18;;;;;;;1.67;1.23;;;;;;;;;;5049236;28;20187;-82
2022/05/12 02:02:45;;;;;;;1.45;1.30;;;;;;;;;;5051529;28;20202;-82
2022/05/12 02:05:12;;;;;;;2.60;1.13;;;;;;;;;;5060566;28;20245;-81
2022/05/12 02:07:40;;;;;;;1.90;1.15;;;;;;;;;;5050598;28;20202;-81
2022/05/12 02:10:08;;;;;;;1.83;1.05;;;;;;;;;;5048616;28;20208;-81
2022/05/12 02:12:35;;;;;;;1.70;0.98;;;;;;;;;;5051275;28;20203;-82
2022/05/12 02:15:04;;;;;;;1.63;1.10;;;;;;;;;;5043830;28;20198;-83
2022/05/12 02:17:31;;;;;;;1.77;1.30;;;;;;;;;;5042297;28;20192;-83
2022/05/12 02:19:59;;;;;;;2.95;1.15;;;;;;;;;;5048123;28;20561;-83
2022/05/12 02:22:26;;;;;;;2.20;1.20;;;;;;;;;;5043723;28;20211;-82
2022/05/12 02:24:53;;;;;;;2.85;1.20;;;;;;;;;;5046611;28;20733;-83
2022/05/12 02:27:21;;;;;;;1.45;0.95;;;;;;;;;;5050404;28;20199;-83
2022/05/12 02:29:48;;;;;;;3.83;1.58;;;;;;;;;;5049747;28;20203;-82
2022/05/12 02:32:21;;;;;;;1.70;1.20;;;;;;;;;;5039576;28;20199;-80
2022/05/12 02:34:48;;;;;;;1.75;1.10;;;;;;;;;;5046446;28;20203;-83
2022/05/12 02:37:16;;;;;;;1.95;1.15;;;;;;;;;;5045219;28;20655;-82
2022/05/12 02:39:43;;;;;;;2.95;1.10;;;;;;;;;;5041689;28;20191;-82
2022/05/12 02:42:11;;;;;;;1.98;1.02;;;;;;;;;;5052477;28;20219;-83
2022/05/12 02:44:38;;;;;;;2.00;1.02;;;;;;;;;;5052136;28;20709;-82
2022/05/12 02:47:07;;;;;;;2.75;0.90;;;;;;;;;;5045403;28;20195;-81
2022/05/12 02:49:35;;;;;;;4.25;1.17;;;;;;;;;;5048442;28;20191;-82
2022/05/12 02:52:02;;;;;;;1.40;1.08;;;;;;;;;;5047222;28;20210;-81
2022/05/12 02:54:29;;;;;;;1.25;1.13;;;;;;;;;;5047734;28;20191;-82
2022/05/12 02:56:56;;;;;;;1.50;1.05;;;;;;;;;;5050664;28;20199;-83
2022/05/12 02:59:24;;;;;;;1.85;0.98;;;;;;;;;;5046402;28;20683;-82
2022/05/12 03:01:51;;;;;;;3.10;1.60;;;;;;;;;;5047274;28;20199;-83
2022/05/12 03:04:19;;;;;;;2.95;1.02;;;;;;;;;;5044183;28;20221;-81
2022/05/12 03:06:48;;;;;;;2.78;0.80;;;;;;;;;;5048471;28;20210;-82
2022/05/12 03:09:15;;;;;;;1.77;1.13;;;;;;;;;;5049642;28;20203;-82
2022/05/12 03:11:42;;;;;;;2.45;1.02;;;;;;;;;;5047860;28;20651;-81
2022/05/12 03:14:09;;;;;;;4.07;1.42;;;;;;;;;;5037908;28;20219;-81
2022/05/12 03:16:36;;;;;;;1.55;1.10;;;;;;;;;;5042750;28;20207;-82
2022/05/12 03:19:03;;;;;;;2.17;1.08;;;;;;;;;;5051428;28;20205;-81
2022/05/12 03:21:31;;;;;;;1.30;0.90;;;;;;;;;;5048931;28;20187;-82
2022/05/12 03:23:59;;;;;;;1.90;0.93;;;;;;;;;;5050319;28;20234;-82
2022/05/12 03:26:27;;;;;;;1.58;0.90;;;;;;;;;;5043394;28;20204;-83
2022/05/12 03:28:54;;;;;;;2.28;1.27;;;;;;;;;;5049975;28;20199;-82
2022/05/12 03:31:21;;;;;;;1.83;1.20;;;;;;;;;;5032956;28;20200;-82
2022/05/12 03:33:48;;;;;;;4.70;1.33;;;;;;;;;;5048060;28;20642;-82
2022/05/12 03:36:16;;;;;;;2.25;1.05;;;;;;;;;;5042668;28;20190;-81
2022/05/12 03:38:43;;;;;;;2.00;0.90;;;;;;;;;;5047229;28;20659;-82
2022/05/12 03:41:11;;;;;;;1.60;1.20;;;;;;;;;;5050372;28;20297;-83
2022/05/12 03:46:23;;;;;;;2.05;1.27;;;;;;;;;;5041796;28;20198;-82
2022/05/12 03:48:51;;;;;;;1.35;1.10;;;;;;;;;;5048155;28;20203;-82
2022/05/12 03:51:18;;;;;;;1.23;0.90;;;;;;;;;;5049370;28;20249;-83
2022/05/12 03:53:45;;;;;;;1.23;0.93;;;;;;;;;;5043234;28;20203;-82
2022/05/12 03:56:14;;;;;;;1.67;1.10;;;;;;;;;;5044050;28;20202;-82
2022/05/12 03:58:41;;;;;;;2.80;1.40;;;;;;;;;;5047467;28;20442;-80
2022/05/12 04:01:08;;;;;;;1.65;1.27;;;;;;;;;;5042562;28;20188;-82
2022/05/12 04:03:35;;;;;;;1.77;1.13;;;;;;;;;;5038216;28;20207;-81
2022/05/12 04:06:03;;;;;;;4.22;1.30;;;;;;;;;;5041892;28;20658;-82
2022/05/12 04:08:30;;;;;;;2.67;1.10;;;;;;;;;;5043891;28;20214;-81
2022/05/12 04:10:57;;;;;;;1.75;0.90;;;;;;;;;;5049490;28;20232;-82
2022/05/12 04:13:26;;;;;;;1.95;1.20;;;;;;;;;;5050527;28;20206;-82
2022/05/12 04:15:53;;;;;;;3.50;1.20;;;;;;;;;;5043239;28;20646;-81
2022/05/12 04:18:20;;;;;;;2.58;1.10;;;;;;;;;;5049097;28;20198;-81
2022/05/12 04:20:48;;;;;;;3.95;1.15;;;;;;;;;;5048578;28;20200;-83
2022/05/12 04:23:15;;;;;;;2.72;1.35;;;;;;;;;;5046207;28;20199;-82
2022/05/12 04:25:42;;;;;;;2.13;0.88;;;;;;;;;;5049671;28;20227;-82
2022/05/12 04:28:09;;;;;;;1.40;1.00;;;;;;;;;;5049287;28;20654;-82
2022/05/12 04:30:38;;;;;;;2.78;1.05;;;;;;;;;;5041194;28;20202;-82
2022/05/12 04:35:51;;;;;;;2.17;1.20;;;;;;;;;;5043850;28;20681;-82
2022/05/12 04:38:18;;;;;;;3.72;1.30;;;;;;;;;;5040995;28;20207;-81
2022/05/12 04:40:45;;;;;;;1.92;1.00;;;;;;;;;;5048501;28;20582;-81
2022/05/12 04:43:12;;;;;;;2.03;0.90;;;;;;;;;;5049108;28;20207;-81
2022/05/12 04:45:41;;;;;;;3.38;1.30;;;;;;;;;;5037950;28;20225;-81
2022/05/12 04:48:09;;;;;;;1.85;1.35;;;;;;;;;;5042603;28;20222;-82
2022/05/12 04:50:37;;;;;;;1.80;1.20;;;;;;;;;;5048612;28;20661;-81
2022/05/12 04:53:04;;;;;;;3.30;1.02;;;;;;;;;;5041832;28;20194;-81
2022/05/12 04:55:33;;;;;;;1.30;0.90;;;;;;;;;;5048670;28;20543;-81
2022/05/12 04:58:00;;;;;;;1.60;0.90;;;;;;;;;;5044645;28;20265;-81
2022/05/12 05:00:28;;;;;;;2.78;1.10;;;;;;;;;;5047970;28;20214;-81
2022/05/12 05:02:56;;;;;;;1.40;1.10;;;;;;;;;;5049386;28;20202;-81
2022/05/12 05:05:24;;;;;;;1.30;1.00;;;;;;;;;;5040279;28;20222;-81
2022/05/12 05:07:51;;;;;;;2.08;1.10;;;;;;;;;;5047867;28;20195;-81
2022/05/12 05:10:18;;;;;;;2.17;0.90;;;;;;;;;;5050914;28;20195;-81
2022/05/12 05:12:46;;;;;;;1.85;1.10;;;;;;;;;;5044091;28;20248;-81
2022/05/12 05:15:14;;;;;;;1.30;0.90;;;;;;;;;;5042047;28;20194;-81
2022/05/12 05:17:42;;;;;;;2.45;1.20;;;;;;;;;;5047354;28;20199;-81
2022/05/12 05:20:12;;;;;;;1.55;1.08;;;;;;;;;;5047331;28;20199;-81
2022/05/12 05:22:39;;;;;;;3.20;1.73;;;;;;;;;;5046979;28;20206;-81
2022/05/12 05:25:07;;;;;;;3.25;1.33;;;;;;;;;;5049192;28;20219;-82
2022/05/12 05:27:34;;;;;;;1.70;1.00;;;;;;;;;;5053197;28;20199;-80
2022/05/12 05:30:01;;;;;;;2.17;1.08;;;;;;;;;;5052489;28;20191;-81
2022/05/12 05:32:28;;;;;;;2.05;1.02;;;;;;;;;;5049678;28;20206;-80
2022/05/12 05:34:56;;;;;;;2.25;1.05;;;;;;;;;;5053065;28;20689;-80
2022/05/12 05:37:24;;;;;;;2.88;1.33;;;;;;;;;;5047528;28;20590;-81
2022/05/12 05:39:51;;;;;;;1.30;1.00;;;;;;;;;;5051850;28;20194;-82
2022/05/12 05:42:20;;;;;;;3.00;1.25;;;;;;;;;;5050642;28;20226;-81
2022/05/12 05:44:47;;;;;;;2.05;0.95;;;;;;;;;;5048682;28;20218;-80
2022/05/12 05:47:14;;;;;;;1.35;0.93;;;;;;;;;;5043686;28;20203;-81
2022/05/12 05:49:42;;;;;;;1.25;0.90;;;;;;;;;;5048547;28;20199;-79
2022/05/12 05:54:56;;;;;;;1.30;1.10;;;;;;;;;;5050241;28;20293;-80
2022/05/12 05:57:24;;;;;;;1.88;1.10;;;;;;;;;;5051216;28;20219;-80
2022/05/12 05:59:51;;;;;;;1.80;0.80;;;;;;;;;;5051457;28;20195;-82
2022/05/12 06:02:19;;;;;;;1.85;1.27;;;;;;;;;;5047942;28;20210;-81
2022/05/12 06:04:46;;;;;;;1.88;1.10;;;;;;;;;;5050120;28;20227;-85
2022/05/12 06:07:13;;;;;;;1.42;1.00;;;;;;;;;;5053362;28;20236;-87
2022/05/12 06:09:40;;;;;;;2.00;0.90;;;;;;;;;;5052157;28;20298;-86
2022/05/12 06:12:09;;;;;;;1.30;1.10;;;;;;;;;;5046546;28;20199;-86
2022/05/12 06:14:36;;;;;;;3.90;1.20;;;;;;;;;;5052362;28;20654;-88
2022/05/12 06:17:04;;;;;;;3.60;1.10;;;;;;;;;;5044302;28;20214;-84
2022/05/12 06:19:31;;;;;;;1.85;1.00;;;;;;;;;;5048654;28;20740;-84
2022/05/12 06:21:58;;;;;;;1.70;1.08;;;;;;;;;;5051481;28;20218;-85
2022/05/12 06:24:25;;;;;;;2.38;1.25;;;;;;;;;;5034680;28;20207;-82
2022/05/12 06:26:52;;;;;;;1.80;0.80;;;;;;;;;;5048524;28;20207;-85
2022/05/12 06:29:20;;;;;;;2.70;1.10;;;;;;;;;;5048390;28;20654;-83
2022/05/12 06:31:48;;;;;;;1.90;1.02;;;;;;;;;;5043249;28;20388;-83
2022/05/12 06:34:16;;;;;;;1.85;1.10;;;;;;;;;;5049743;28;20618;-85
2022/05/12 06:36:44;;;;;;;2.25;0.98;;;;;;;;;;5048607;28;20196;-84
2022/05/12 06:39:11;;;;;;;1.88;1.25;;;;;;;;;;5043027;28;20265;-82
2022/05/12 06:41:38;;;;;;;1.30;0.90;;;;;;;;;;5051644;28;20219;-86
2022/05/12 06:44:05;;;;;;;1.63;1.08;;;;;;;;;;5049961;28;20195;-83
2022/05/12 06:46:34;;;;;;;3.47;1.10;;;;;;;;;;5047656;28;20264;-83
2022/05/12 06:49:02;;;;;;;3.22;1.70;;;;;;;;;;5052478;28;20209;-86
2022/05/12 06:51:29;;;;;;;1.40;1.10;;;;;;;;;;5045410;28;20203;-84
2022/05/12 06:53:56;;;;;;;2.03;1.00;;;;;;;;;;5048629;28;20210;-88
2022/05/12 06:56:23;;;;;;;2.05;1.23;;;;;;;;;;5054342;28;20249;-86
2022/05/12 06:58:50;;;;;;;1.60;1.23;;;;;;;;;;5049147;28;20200;-87
2022/05/12 07:01:17;;;;;;;4.07;1.30;;;;;;;;;;5047168;28;20202;-89
2022/05/12 07:03:45;;;;;;;1.63;1.30;;;;;;;;;;5053935;28;20202;-88
2022/05/12 07:06:13;;;;;;;1.80;1.30;;;;;;;;;;5045167;28;20227;-88
2022/05/12 07:08:41;;;;;;;1.70;1.08;;;;;;;;;;5053605;28;20218;-86
2022/05/12 07:11:08;;;;;;;1.35;1.23;;;;;;;;;;5042704;28;20229;-88
2022/05/12 07:13:36;;;;;;;2.20;1.10;;;;;;;;;;5050616;28;20252;-86
2022/05/12 07:16:04;;;;;;;2.75;1.20;;;;;;;;;;5042551;28;20751;-87
2022/05/12 07:18:31;;;;;;;2.40;1.33;;;;;;;;;;5047987;28;20657;-86
2022/05/12 07:26:40;;;;;;;3.35;1.60;;;;;;;;;;5042990;28;20587;-83
2022/05/12 07:29:08;;;;;;;1.60;1.40;;;;;;;;;;5042678;28;20701;-85
2022/05/12 07:31:35;;;;;;;2.25;1.30;;;;;;;;;;5038655;28;20570;-84
2022/05/12 07:34:02;;;;;;;3.10;1.70;;;;;;;;;;5037710;28;20204;-84
2022/05/12 07:36:32;;;;;;;3.75;1.70;;;;;;;;;;5039255;28;20210;-84
2022/05/12 07:39:00;;;;;;;2.17;1.73;;;;;;;;;;5037536;28;20286;-85
2022/05/12 07:41:27;;;;;;;2.35;1.92;;;;;;;;;;5048539;28;20581;-84
2022/05/12 07:43:55;;;;;;;2.10;1.70;;;;;;;;;;5046215;28;20614;-83
2022/05/12 07:46:23;;;;;;;2.10;1.45;;;;;;;;;;5044982;28;20218;-81
2022/05/12 07:48:51;;;;;;;3.38;1.73;;;;;;;;;;5050267;28;20621;-82
2022/05/12 07:51:18;;;;;;;2.78;1.65;;;;;;;;;;5041887;28;20199;-85
2022/05/12 07:53:47;;;;;;;2.35;2.15;;;;;;;;;;5043873;28;20204;-86
2022/05/12 07:56:15;;;;;;;2.78;1.60;;;;;;;;;;5031970;28;20285;-83
2022/05/12 07:58:42;;;;;;;2.13;1.92;;;;;;;;;;5048267;28;20594;-82
2022/05/12 08:01:10;;;;;;;2.17;1.67;;;;;;;;;;5048207;28;20665;-83
2022/05/12 08:03:37;;;;;;;2.13;1.60;;;;;;;;;;5049888;28;20199;-82
2022/05/12 08:06:04;;;;;;;2.17;1.50;;;;;;;;;;5045497;28;20222;-84
2022/05/12 08:08:31;;;;;;;1.90;1.40;;;;;;;;;;5048143;28;20960;-83
2022/05/12 08:11:00;;;;;;;2.53;1.90;;;;;;;;;;5042470;28;20571;-82
2022/05/12 08:13:27;;;;;;;1.87;1.50;;;;;;;;;;5045981;28;20463;-83
2022/05/12 08:15:54;;;;;;;2.43;1.40;;;;;;;;;;5036050;28;20821;-82
2022/05/12 08:18:26;;;;;;;1.70;1.60;;;;;;;;;;5041041;28;20966;-83
2022/05/12 08:20:53;;;;;;;3.67;1.77;;;;;;;;;;5047222;28;20462;-84
2022/05/12 08:23:21;;;;;;;2.73;2.00;;;;;;;;;;5043381;28;20446;-81
2022/05/12 08:25:48;;;;;;;6.00;1.90;;;;;;;;;;5037330;28;20496;-82
2022/05/12 08:28:18;;;;;;;2.20;1.73;;;;;;;;;;5040229;28;20999;-81
2022/05/12 08:30:45;;;;;;;6.47;1.90;;;;;;;;;;5040289;28;20963;-82
2022/05/12 08:33:13;;;;;;;1.60;1.40;;;;;;;;;;5043479;28;20431;-84
2022/05/12 08:35:40;;;;;;;3.27;1.60;;;;;;;;;;5045915;28;20460;-84
2022/05/12 08:38:08;;;;;;;4.10;1.80;;;;;;;;;;5048421;28;20461;-82
2022/05/12 08:40:39;;;;;;;2.40;2.20;;;;;;;;;;5036917;28;20460;-83
2022/05/12 08:43:09;;;;;;;2.73;1.70;;;;;;;;;;5036079;28;20463;-85
2022/05/12 08:45:38;;;;;;;1.87;1.60;;;;;;;;;;5039975;28;20486;-82
2022/05/12 08:48:05;;;;;;;2.40;1.87;;;;;;;;;;5031907;28;20788;-81
2022/05/12 08:50:33;;;;;;;2.60;2.03;;;;;;;;;;5045850;28;20469;-82
2022/05/12 08:53:02;;;;;;;8.47;2.10;;;;;;;;;;5049116;28;20504;-82
2022/05/12 08:55:31;;;;;;;2.57;1.80;;;;;;;;;;5045047;28;20462;-82
2022/05/12 08:57:59;;;;;;;5.20;2.00;;;;;;;;;;5044701;28;20970;-82
2022/05/12 09:00:27;;;;;;;3.73;1.90;;;;;;;;;;5045213;28;20981;-81
2022/05/12 09:03:01;;;;;;;1.55;1.45;;;;;;;;;;5047291;28;20489;-84
2022/05/12 09:05:30;;;;;;;4.43;2.33;;;;;;;;;;5050371;28;20217;-86
2022/05/12 09:08:00;;;;;;;2.80;1.63;;;;;;;;;;5054886;28;20447;-85
2022/05/12 09:10:34;;;;;;;1.80;1.70;;;;;;;;;;5046737;28;20466;-83
2022/05/12 09:13:03;;;;;;;3.63;1.50;;;;;;;;;;5052285;28;20553;-83
2022/05/12 09:15:32;;;;;;;2.73;1.33;;;;;;;;;;5044337;28;20465;-84
2022/05/12 09:18:02;;;;;;;1.60;1.50;;;;;;;;;;5046936;28;20464;-84
2022/05/12 09:20:30;;;;;;;3.20;1.60;;;;;;;;;;5048061;28;20465;-85
2022/05/12 09:22:57;;;;;;;2.43;1.63;;;;;;;;;;5052274;28;20457;-82
2022/05/12 09:25:32;;;;;;;2.43;2.00;;;;;;;;;;5041219;28;20461;-82
2022/05/12 09:27:59;;;;;;;2.80;1.70;;;;;;;;;;5051319;28;20541;-82
2022/05/12 09:30:34;;;;;;;3.10;1.30;;;;;;;;;;5050225;28;20462;-83
2022/05/12 09:33:02;;;;;;;3.30;1.83;;;;;;;;;;5044449;28;20450;-81
2022/05/12 09:35:30;;;;;;;2.03;1.50;;;;;;;;;;5043568;28;20461;-80
2022/05/12 09:37:57;;;;;;;3.77;1.57;;;;;;;;;;5051869;28;20620;-81
2022/05/12 09:40:34;;;;;;;2.30;1.40;;;;;;;;;;5050549;28;20886;-79
2022/05/12 09:43:03;;;;;;;2.23;1.60;;;;;;;;;;5050413;28;20474;-78
2022/05/12 09:45:32;;;;;;;1.60;1.50;;;;;;;;;;5047758;28;20469;-79
2022/05/12 09:48:10;;;;;;;3.90;1.83;;;;;;;;;;5052527;28;20455;-79
2022/05/12 09:50:37;;;;;;;6.67;2.20;;;;;;;;;;5044093;28;20822;-79
2022/05/12 09:53:06;;;;;;;2.47;1.70;;;;;;;;;;5049385;28;21051;-78
2022/05/12 09:55:36;;;;;;;2.15;1.65;;;;;;;;;;5052402;28;20887;-80
2022/05/12 09:58:05;;;;;;;2.17;1.80;;;;;;;;;;5050681;28;20230;-80
2022/05/12 10:00:35;;;;;;;4.93;2.00;;;;;;;;;;5047836;28;20462;-79
2022/05/12 10:08:44;;;;;;;2.97;1.70;;;;;;;;;;5049881;28;20436;-80
2022/05/12 10:11:12;;;;;;;3.43;2.30;;;;;;;;;;5050720;28;20452;-80
2022/05/12 10:13:43;;;;;;;1.60;1.50;;;;;;;;;;5044633;28;20972;-78
2022/05/12 10:16:11;;;;;;;3.07;1.57;;;;;;;;;;5044619;28;20956;-80
2022/05/12 10:18:42;;;;;;;3.00;2.00;;;;;;;;;;5045699;28;20967;-79
2022/05/12 10:21:14;;;;;;;2.57;2.10;;;;;;;;;;5049150;28;20462;-78
2022/05/12 10:23:47;;;;;;;2.70;2.50;;;;;;;;;;5048174;28;20454;-78
2022/05/12 10:26:16;;;;;;;1.90;1.50;;;;;;;;;;5040670;28;20477;-79
2022/05/12 10:28:49;;;;;;;2.15;1.95;;;;;;;;;;5047626;28;20461;-81
2022/05/12 10:31:23;;;;;;;1.47;1.27;;;;;;;;;;5046351;28;20187;-78
2022/05/12 10:33:53;;;;;;;1.90;1.70;;;;;;;;;;5041820;28;20474;-80
2022/05/12 10:36:31;;;;;;;2.67;1.90;;;;;;;;;;5045129;28;20446;-82
2022/05/12 10:39:03;;;;;;;5.13;2.20;;;;;;;;;;5044249;28;21178;-83
2022/05/12 10:41:33;;;;;;;3.20;1.90;;;;;;;;;;5051369;28;20481;-82
2022/05/12 10:44:17;;;;;;;2.50;2.17;;;;;;;;;;5052116;28;20450;-81
2022/05/12 10:46:50;;;;;;;3.23;1.80;;;;;;;;;;5045047;28;20478;-82
2022/05/12 10:49:21;;;;;;;2.07;1.67;;;;;;;;;;5046284;28;20984;-81
2022/05/12 10:51:52;;;;;;;9.53;3.83;;;;;;;;;;5043741;28;20457;-80
2022/05/12 10:54:24;;;;;;;3.47;2.23;;;;;;;;;;5050133;28;20458;-82
2022/05/12 10:56:55;;;;;;;2.83;2.27;;;;;;;;;;5042122;28;20472;-83
2022/05/12 10:59:32;;;;;;;2.10;1.83;;;;;;;;;;5047148;28;20511;-82
2022/05/12 11:02:00;;;;;;;1.60;1.50;;;;;;;;;;5047476;28;20454;-82
2022/05/12 11:04:30;;;;;;;2.73;2.27;;;;;;;;;;5042561;28;20469;-83
2022/05/12 11:07:00;;;;;;;2.83;2.10;;;;;;;;;;5051333;28;20483;-84
2022/05/12 11:09:30;;;;;;;2.80;2.00;;;;;;;;;;5046463;28;20939;-82
2022/05/12 11:12:01;;;;;;;1.97;1.70;;;;;;;;;;5043146;28;20853;-83
2022/05/12 11:14:33;;;;;;;2.20;1.73;;;;;;;;;;5041737;28;20449;-82
2022/05/12 11:17:02;;;;;;;2.30;2.10;;;;;;;;;;5036908;28;20981;-80
2022/05/12 11:19:29;;;;;;;2.57;2.03;;;;;;;;;;5045293;28;20449;-83
2022/05/12 11:22:03;;;;;;;3.10;2.10;;;;;;;;;;5045036;28;20471;-80
2022/05/12 11:24:39;;;;;;;3.50;1.63;;;;;;;;;;5043621;28;20492;-81
2022/05/12 11:27:20;;;;;;;1.73;1.63;;;;;;;;;;5038106;28;20481;-80
2022/05/12 11:29:54;;;;;;;2.17;1.97;;;;;;;;;;5039204;28;20449;-81
2022/05/12 11:32:26;;;;;;;3.10;2.00;;;;;;;;;;5038658;28;21031;-79
2022/05/12 11:34:56;;;;;;;2.17;1.80;;;;;;;;;;5030451;28;20446;-79
2022/05/12 11:37:32;;;;;;;2.85;2.55;;;;;;;;;;5041688;28;20642;-80
2022/05/12 11:40:00;;;;;;;2.58;1.70;;;;;;;;;;5040396;28;20661;-80
2022/05/12 11:42:28;;;;;;;2.70;1.70;;;;;;;;;;5036523;28;20235;-81
2022/05/12 11:44:58;;;;;;;3.05;1.42;;;;;;;;;;5046816;28;20441;-80
2022/05/12 11:47:43;;;;;;;2.30;1.90;;;;;;;;;;5038812;28;20218;-80
2022/05/12 11:50:18;;;;;;;1.75;1.65;;;;;;;;;;5038405;28;20210;-79
2022/05/12 11:52:51;;;;;;;3.30;2.37;;;;;;;;;;5041788;28;20221;-80
2022/05/12 11:55:23;;;;;;;2.23;1.40;;;;;;;;;;5039952;28;20941;-80
2022/05/12 11:57:58;;;;;;;1.60;1.50;;;;;;;;;;5043540;28;20465;-80
2022/05/12 12:00:41;;;;;;;2.83;1.67;;;;;;;;;;5042495;28;20844;-80
2022/05/12 12:03:23;;;;;;;2.08;1.88;;;;;;;;;;5041731;28;20213;-80
2022/05/12 12:05:59;;;;;;;3.23;1.93;;;;;;;;;;5036281;28;20294;-79
2022/05/12 12:08:41;;;;;;;2.23;2.00;;;;;;;;;;5039734;28;20482;-79
2022/05/12 12:11:22;;;;;;;3.27;2.03;;;;;;;;;;5036764;28;20469;-82
2022/05/12 12:13:50;;;;;;;2.28;2.08;;;;;;;;;;5038575;28;20437;-79
2022/05/12 12:16:18;;;;;;;2.60;2.10;;;;;;;;;;5039678;28;20198;-81
2022/05/12 12:18:53;;;;;;;2.30;2.10;;;;;;;;;;5040397;28;20461;-80
2022/05/12 12:21:41;;;;;;;3.47;2.23;;;;;;;;;;5042294;28;20194;-82
2022/05/12 12:24:17;;;;;;;2.58;2.38;;;;;;;;;;5019626;28;20454;-81
2022/05/12 12:26:45;;;;;;;3.95;2.60;;;;;;;;;;5044757;28;20241;-84
2022/05/12 12:29:15;;;;;;;2.70;2.10;;;;;;;;;;5047320;28;20589;-85
2022/05/12 12:31:44;;;;;;;2.60;2.37;;;;;;;;;;5041276;28;20883;-83
2022/05/12 12:34:13;;;;;;;5.87;2.50;;;;;;;;;;5045031;28;21011;-84
2022/05/12 12:37:05;;;;;;;1.73;1.63;;;;;;;;;;5045507;28;20544;-84
2022/05/12 12:39:43;;;;;;;3.20;2.00;;;;;;;;;;5040867;28;20467;-83
2022/05/12 12:42:15;;;;;;;2.53;1.90;;;;;;;;;;5046510;28;20519;-85
2022/05/12 12:44:43;;;;;;;2.20;1.70;;;;;;;;;;5050186;28;20446;-83
2022/05/12 12:47:13;;;;;;;2.90;2.13;;;;;;;;;;5043802;28;20859;-83
2022/05/12 12:49:50;;;;;;;2.10;2.00;;;;;;;;;;5046808;28;20224;-83
2022/05/12 12:52:22;;;;;;;3.57;1.77;;;;;;;;;;5049470;28;20875;-83
2022/05/12 12:57:44;;;;;;;2.50;2.30;;;;;;;;;;5044799;28;20484;-90
2022/05/12 13:00:15;;;;;;;2.50;1.80;;;;;;;;;;5046038;28;20466;-83
2022/05/12 13:02:44;;;;;;;3.00;1.73;;;;;;;;;;5050245;28;20891;-85
2022/05/12 13:05:12;;;;;;;3.17;1.80;;;;;;;;;;5048103;28;20461;-85
2022/05/12 13:07:40;;;;;;;3.13;2.25;;;;;;;;;;5051022;28;20465;-85
2022/05/12 13:10:10;;;;;;;3.00;1.80;;;;;;;;;;5047802;28;20195;-86
2022/05/12 13:12:38;;;;;;;2.47;2.13;;;;;;;;;;5047847;28;20453;-84
2022/05/12 13:15:15;;;;;;;2.20;2.00;;;;;;;;;;5045584;28;20465;-86
2022/05/12 13:17:46;;;;;;;4.50;2.60;;;;;;;;;;5042400;28;20640;-83
2022/05/12 13:20:15;;;;;;;3.45;2.00;;;;;;;;;;5035904;28;20462;-83
2022/05/12 13:22:46;;;;;;;1.97;1.87;;;;;;;;;;5047134;28;20200;-83
2022/05/12 13:25:19;;;;;;;2.63;1.80;;;;;;;;;;5047357;28;20966;-85
2022/05/12 13:27:46;;;;;;;2.50;2.30;;;;;;;;;;5050558;28;20566;-84
2022/05/12 13:30:16;;;;;;;2.97;2.20;;;;;;;;;;5047890;28;20509;-90
2022/05/12 13:32:45;;;;;;;1.90;1.60;;;;;;;;;;5041521;28;20482;-84
2022/05/12 13:35:16;;;;;;;1.57;1.47;;;;;;;;;;5043641;28;20204;-83
2022/05/12 13:37:48;;;;;;;2.67;2.17;;;;;;;;;;5044173;28;20466;-83
2022/05/12 13:40:34;;;;;;;2.20;2.00;;;;;;;;;;5043013;28;20454;-83
2022/05/12 13:43:02;;;;;;;2.30;2.10;;;;;;;;;;5044295;28;20477;-81
2022/05/12 13:45:31;;;;;;;2.23;2.00;;;;;;;;;;5048917;28;20457;-83
2022/05/12 13:47:59;;;;;;;4.18;2.28;;;;;;;;;;5051959;28;20527;-84
2022/05/12 13:50:35;;;;;;;2.42;2.22;;;;;;;;;;5048895;28;20198;-83
2022/05/12 13:53:02;;;;;;;5.83;3.17;;;;;;;;;;5049321;28;20199;-84
2022/05/12 13:55:30;;;;;;;3.20;1.63;;;;;;;;;;5040356;28;20469;-83
2022/05/12 13:58:12;;;;;;;2.30;2.00;;;;;;;;;;5050194;28;20472;-83
2022/05/12 14:00:40;;;;;;;2.78;2.55;;;;;;;;;;5045699;28;20967;-83
2022/05/12 14:03:20;;;;;;;2.07;1.77;;;;;;;;;;5051085;28;20592;-83
2022/05/12 14:05:47;;;;;;;2.73;2.20;;;;;;;;;;5052425;28;20877;-82
2022/05/12 14:08:16;;;;;;;3.75;2.00;;;;;;;;;;5051355;28;20536;-82
2022/05/12 14:10:45;;;;;;;3.30;2.07;;;;;;;;;;5048014;28;20305;-82
2022/05/12 14:21:29;;;;;;;2.30;2.10;;;;;;;;;;5029434;28;20451;-83
2022/05/12 14:23:56;;;;;;;3.00;2.30;;;;;;;;;;5045954;28;20446;-83
2022/05/12 14:26:23;;;;;;;2.50;2.30;;;;;;;;;;5045368;28;20854;-83
2022/05/12 14:28:52;;;;;;;2.50;2.30;;;;;;;;;;5041585;28;20710;-82
2022/05/12 14:31:21;;;;;;;3.20;2.30;;;;;;;;;;5042799;28;20461;-83
2022/05/12 14:33:48;;;;;;;2.63;1.87;;;;;;;;;;5047293;28;21044;-82
2022/05/12 14:36:15;;;;;;;2.20;2.00;;;;;;;;;;5049548;28;20469;-84
2022/05/12 14:38:42;;;;;;;3.63;2.10;;;;;;;;;;5049487;28;20454;-82
2022/05/12 14:41:09;;;;;;;2.10;1.90;;;;;;;;;;5050887;28;20585;-81
2022/05/12 14:43:36;;;;;;;4.93;2.63;;;;;;;;;;5050704;28;20451;-83
2022/05/12 14:46:05;;;;;;;4.10;3.27;;;;;;;;;;5043656;28;20462;-83
2022/05/12 14:48:32;;;;;;;8.60;4.80;;;;;;;;;;5041227;28;20505;-83
2022/05/12 14:50:59;;;;;;;4.67;3.37;;;;;;;;;;5049633;28;20473;-82
2022/05/12 14:53:27;;;;;;;6.13;3.10;;;;;;;;;;5047426;28;20941;-81
2022/05/12 14:55:54;;;;;;;3.80;2.67;;;;;;;;;;5051621;28;20453;-81
2022/05/12 14:58:21;;;;;;;7.30;3.10;;;;;;;;;;5045358;28;20460;-81
2022/05/12 15:00:48;;;;;;;4.00;3.27;;;;;;;;;;5040829;28;20469;-81
2022/05/12 15:03:17;;;;;;;3.13;2.83;;;;;;;;;;5048993;28;20462;-82
2022/05/12 15:05:44;;;;;;;3.50;2.87;;;;;;;;;;5042807;28;20463;-81
2022/05/12 15:08:11;;;;;;;3.30;2.30;;;;;;;;;;5034798;28;20476;-81
2022/05/12 15:10:38;;;;;;;4.37;3.30;;;;;;;;;;5040676;28;20656;-82
2022/05/12 15:13:05;;;;;;;3.40;3.10;;;;;;;;;;5051154;28;20465;-81
2022/05/12 15:15:33;;;;;;;3.05;2.75;;;;;;;;;;5042625;28;20841;-81
2022/05/12 15:18:00;;;;;;;3.70;2.90;;;;;;;;;;5045542;28;20562;-81
2022/05/12 15:20:29;;;;;;;5.90;3.63;;;;;;;;;;5042676;28;20825;-81
2022/05/12 15:22:56;;;;;;;3.40;2.87;;;;;;;;;;5034942;28;20200;-81
2022/05/12 15:25:24;;;;;;;2.58;1.98;;;;;;;;;;5045918;28;20465;-82